Miami International Airport
KMIA : now visible

Airfield :











YOU CAN JOIN US ON...

 
LOGIN :

Register | Disclaimer

   EN    FR    IT 

 









Legend :    VFR   Marginal VFR   IFR   Intensive IFR   Very Intensive IFR
Visi :
Ceiling :
>= 8 km
>= 3000ft
5 to 8 km
1000 to 3000 ft
1500m to 5 km
500 to 1000 ft
800 to 1500m
200 to 500 ft
< 800m
< 200 ft
Symbols :   Thunderstorms  Fog  Heavy snow  Heavy precipitations  Wind > 20 kt






- Airport Elevation : 8 ft
- IATA code : MIA


KMIA - Miami International

CURRENT METAR :
  • 141053Z 05003KT 10SM FEW025 23/19 A3010 RMK AO2 SLP191 T02280189 $

EXPIRED METARs :
  • 140953Z 01003KT 10SM FEW030 23/19 A3008 RMK AO2 SLP187 T02280189 $
  • 140853Z 03003KT 10SM CLR 22/19 A3007 RMK AO2 SLP181 T02220189 55001 $

TAF KMIA
Valid from the 14 at 09:00 until the 15 at 12:00 UTC


140830Z 1409/1512 VRB04KT P6SM SKC
FM141500 10015KT P6SM FEW040
FM150500 VRB05KT P6SM SKC
KZMA FIR / North America



MET'MAP, your aeronautical weather chart ! - Copyright ORBIFLY December 2007 - Disclaimer

ORBIFLY MET'MAP TEAM :

Programming & Development : Alexandra Zaïnal
Concept & original design : Baudouin d'Aumeries
Assistance for programming : Marc-Olivier Méhu
Technical & hardware support : Manuel Goepfert

Contact : metmap@orbifly.com




SOURCES & CREDITS :

   NOAA       Earth
Advisory